createdAt,value
2018-10-03T00:01:09.593Z,80.92
2018-10-03T00:03:38.973Z,79.53
2018-10-03T00:06:09.640Z,80.13
2018-10-03T00:08:38.912Z,79.09
2018-10-03T00:11:09.277Z,79.25
2018-10-03T00:13:40.095Z,77.74
2018-10-03T00:16:09.425Z,77.09
2018-10-03T00:18:40.153Z,77.68
2018-10-03T00:21:10.593Z,76.84
2018-10-03T00:23:39.961Z,77.16
2018-10-03T00:26:09.189Z,75.47
2018-10-03T00:28:38.938Z,75.49
2018-10-03T00:31:08.877Z,75.90
2018-10-03T00:33:39.298Z,74.07
2018-10-03T00:36:10.175Z,72.16
2018-10-03T00:38:40.473Z,71.73
2018-10-03T00:41:09.261Z,72.18
2018-10-03T00:43:38.710Z,71.63
2018-10-03T00:46:08.340Z,70.69
2018-10-03T00:48:36.697Z,70.12
2018-10-03T00:51:06.161Z,72.17
2018-10-03T00:53:34.929Z,70.69
2018-10-03T00:56:04.377Z,70.69
2018-10-03T00:58:33.704Z,70.13
2018-10-03T01:01:02.808Z,72.26
2018-10-03T01:03:31.210Z,71.84
2018-10-03T01:05:59.599Z,72.00
2018-10-03T01:08:27.905Z,71.57
2018-10-03T01:11:02.729Z,71.49
2018-10-03T01:13:32.065Z,71.26
2018-10-03T01:16:01.784Z,71.95
2018-10-03T01:18:30.124Z,70.77
2018-10-03T01:20:58.458Z,71.59
2018-10-03T01:23:26.805Z,71.86
2018-10-03T01:25:55.116Z,71.84
2018-10-03T01:28:23.494Z,71.96
2018-10-03T01:30:51.839Z,72.04
2018-10-03T01:33:20.189Z,72.57
2018-10-03T01:35:48.541Z,72.13
2018-10-03T01:38:16.903Z,72.18
2018-10-03T01:40:45.258Z,72.03
2018-10-03T01:43:13.588Z,72.03
2018-10-03T01:45:41.927Z,72.88
2018-10-03T01:48:10.267Z,72.60
2018-10-03T01:50:40.814Z,72.51
2018-10-03T01:53:09.162Z,71.48
2018-10-03T01:55:38.417Z,70.68
2018-10-03T01:58:06.753Z,69.47
2018-10-03T02:00:35.114Z,69.98
2018-10-03T02:03:03.472Z,71.12
2018-10-03T02:05:32.325Z,71.36
2018-10-03T02:08:00.654Z,70.31
2018-10-03T02:10:28.992Z,70.64
2018-10-03T02:12:57.313Z,70.37
2018-10-03T02:15:25.710Z,71.41
2018-10-03T02:17:54.101Z,69.10
2018-10-03T02:20:23.325Z,69.04
2018-10-03T02:22:52.669Z,68.65
2018-10-03T02:25:22.215Z,68.10
2018-10-03T02:27:51.549Z,68.71
2018-10-03T02:30:20.718Z,67.53
2018-10-03T02:32:49.926Z,67.36
2018-10-03T02:35:19.309Z,66.79
2018-10-03T02:37:48.562Z,66.74
2018-10-03T02:40:17.918Z,66.44
2018-10-03T02:42:47.166Z,66.71
2018-10-03T02:45:19.986Z,66.71
2018-10-03T02:47:50.469Z,67.00
2018-10-03T02:50:19.857Z,66.57
2018-10-03T02:52:48.537Z,66.57
2018-10-03T02:55:17.910Z,67.09
2018-10-03T02:57:47.177Z,67.71
2018-10-03T03:00:16.377Z,66.88
2018-10-03T03:02:45.621Z,67.48
2018-10-03T03:05:14.967Z,66.92
2018-10-03T03:07:43.352Z,67.88
2018-10-03T03:10:11.708Z,67.00
2018-10-03T03:12:40.055Z,66.75
2018-10-03T03:15:09.419Z,66.37
2018-10-03T03:17:38.913Z,66.22
2018-10-03T03:20:07.821Z,66.98
2018-10-03T03:22:38.258Z,66.21
2018-10-03T03:25:07.352Z,66.83
2018-10-03T03:27:36.257Z,68.00
2018-10-03T03:30:05.091Z,68.61
2018-10-03T03:32:34.552Z,68.84
2018-10-03T03:35:02.898Z,68.60
2018-10-03T03:37:31.310Z,70.20
2018-10-03T03:39:59.715Z,69.97
2018-10-03T03:42:28.082Z,68.67
2018-10-03T03:44:56.435Z,68.01
2018-10-03T03:47:24.760Z,68.05
2018-10-03T03:49:53.108Z,67.81
2018-10-03T03:52:21.457Z,67.89
2018-10-03T03:54:49.789Z,67.81
2018-10-03T03:57:18.125Z,68.34
2018-10-03T03:59:46.477Z,67.12
2018-10-03T04:02:14.837Z,67.58
2018-10-03T04:04:43.169Z,67.93
2018-10-03T04:07:11.498Z,66.87
2018-10-03T04:09:39.860Z,66.53
2018-10-03T04:12:09.290Z,67.66
2018-10-03T04:14:38.410Z,67.27
2018-10-03T04:17:07.193Z,66.10
2018-10-03T04:19:36.290Z,65.92
2018-10-03T04:22:04.630Z,65.83
2018-10-03T04:24:34.461Z,66.76
2018-10-03T04:27:03.781Z,65.21
2018-10-03T04:29:34.001Z,66.15
2018-10-03T04:32:02.945Z,65.09
2018-10-03T04:34:31.949Z,64.66
2018-10-03T04:37:00.352Z,64.79
2018-10-03T04:39:28.684Z,64.74
2018-10-03T04:41:57.019Z,64.68
2018-10-03T04:44:25.375Z,64.93
2018-10-03T04:46:53.718Z,64.90
2018-10-03T04:49:22.065Z,65.08
2018-10-03T04:51:50.417Z,64.94
2018-10-03T04:54:18.761Z,64.55
2018-10-03T04:56:47.907Z,65.10
2018-10-03T04:59:16.269Z,64.20
2018-10-03T05:01:44.673Z,65.11
2018-10-03T05:04:13.058Z,65.07
2018-10-03T05:06:41.413Z,65.45
2018-10-03T05:09:10.200Z,65.19
2018-10-03T05:11:39.429Z,64.79
2018-10-03T05:14:08.770Z,64.33
2018-10-03T05:16:39.261Z,64.07
2018-10-03T05:19:08.621Z,64.54
2018-10-03T05:21:37.696Z,64.57
2018-10-03T05:24:07.067Z,64.34
2018-10-03T05:26:37.003Z,64.23
2018-10-03T05:29:06.997Z,64.26
2018-10-03T05:31:36.637Z,64.58
2018-10-03T05:34:04.973Z,63.76
2018-10-03T05:36:33.949Z,63.55
2018-10-03T05:39:03.101Z,63.56
2018-10-03T05:41:31.872Z,63.96
2018-10-03T05:44:00.181Z,63.61
2018-10-03T05:46:28.512Z,63.76
2018-10-03T05:48:56.931Z,63.48
2018-10-03T05:51:25.443Z,63.19
2018-10-03T05:53:53.787Z,62.60
2018-10-03T05:56:22.141Z,62.10
2018-10-03T05:58:50.489Z,62.26
2018-10-03T06:01:18.854Z,62.06
2018-10-03T06:03:47.193Z,61.91
2018-10-03T06:06:15.535Z,61.75
2018-10-03T06:08:44.796Z,63.22
2018-10-03T06:11:14.185Z,61.88
2018-10-03T06:13:42.512Z,61.78
2018-10-03T06:16:11.225Z,61.78
2018-10-03T06:18:39.675Z,63.04
2018-10-03T06:21:08.789Z,61.58
2018-10-03T06:23:37.817Z,61.57
2018-10-03T06:26:06.986Z,61.15
2018-10-03T06:28:35.326Z,60.73
2018-10-03T06:31:04.693Z,61.32
2018-10-03T06:33:35.010Z,61.35
2018-10-03T06:36:05.201Z,61.10
2018-10-03T06:38:35.841Z,61.22
2018-10-03T06:41:05.053Z,60.82
2018-10-03T06:43:34.250Z,61.32
2018-10-03T06:46:04.682Z,60.97
2018-10-03T06:48:34.525Z,61.66
2018-10-03T06:51:05.161Z,60.21
2018-10-03T06:53:35.941Z,60.82
2018-10-03T06:56:04.470Z,60.45
2018-10-03T06:58:33.770Z,60.47
2018-10-03T07:01:03.781Z,60.45
2018-10-03T07:03:33.917Z,60.35
2018-10-03T07:06:04.325Z,60.92
2018-10-03T07:08:33.665Z,60.29
2018-10-03T07:11:03.804Z,59.70
2018-10-03T07:13:33.577Z,59.76
2018-10-03T07:16:02.709Z,60.95
2018-10-03T07:18:32.094Z,59.82
2018-10-03T07:21:02.382Z,59.96
2018-10-03T07:23:32.119Z,59.69
2018-10-03T07:26:02.395Z,59.47
2018-10-03T07:28:30.788Z,59.16
2018-10-03T07:30:59.113Z,59.17
2018-10-03T07:33:28.334Z,59.79
2018-10-03T07:35:57.701Z,59.63
2018-10-03T07:38:26.933Z,60.02
2018-10-03T07:40:56.878Z,59.34
2018-10-03T07:43:26.785Z,59.42
2018-10-03T07:45:56.265Z,60.34
2018-10-03T07:48:24.598Z,60.12
2018-10-03T07:50:53.833Z,59.88
2018-10-03T07:53:23.240Z,59.34
2018-10-03T07:55:52.562Z,58.54
2018-10-03T07:58:21.785Z,58.74
2018-10-03T08:00:51.177Z,58.46
2018-10-03T08:03:20.393Z,57.80
2018-10-03T08:05:48.726Z,57.84
2018-10-03T08:08:17.985Z,58.00
2018-10-03T08:10:47.310Z,57.89
2018-10-03T08:13:16.669Z,58.13
2018-10-03T08:15:45.903Z,58.26
2018-10-03T08:18:15.248Z,57.85
2018-10-03T08:20:44.510Z,57.39
2018-10-03T08:23:13.768Z,57.78
2018-10-03T08:25:42.977Z,57.44
2018-10-03T08:28:12.299Z,56.49
2018-10-03T08:30:41.642Z,56.53
2018-10-03T08:33:10.025Z,57.04
2018-10-03T08:35:39.265Z,56.93
2018-10-03T08:38:08.740Z,56.52
2018-10-03T08:40:38.035Z,56.01
2018-10-03T08:43:07.964Z,55.67
2018-10-03T08:45:38.485Z,55.54
2018-10-03T08:48:06.821Z,55.97
2018-10-03T08:50:35.207Z,55.62
2018-10-03T08:53:05.894Z,55.74
2018-10-03T08:55:34.783Z,54.77
2018-10-03T08:58:03.165Z,54.46
2018-10-03T09:00:32.020Z,54.56
2018-10-03T09:03:00.352Z,53.87
2018-10-03T09:05:28.698Z,53.17
2018-10-03T09:08:11.242Z,53.25
2018-10-03T09:10:41.026Z,52.91
2018-10-03T09:13:09.409Z,53.46
2018-10-03T09:15:38.925Z,53.30
2018-10-03T09:18:09.258Z,52.67
2018-10-03T09:20:40.425Z,52.90
2018-10-03T09:23:09.748Z,52.41
2018-10-03T09:25:38.693Z,52.33
2018-10-03T09:28:08.101Z,52.48
2018-10-03T09:30:38.369Z,52.82
2018-10-03T09:33:08.693Z,51.84
2018-10-03T09:35:39.046Z,51.85
2018-10-03T09:38:09.188Z,51.63
2018-10-03T09:40:38.914Z,51.58
2018-10-03T09:43:09.069Z,50.58
2018-10-03T09:45:39.325Z,50.15
2018-10-03T09:48:09.954Z,49.86
2018-10-03T09:50:39.165Z,50.22
2018-10-03T09:53:08.950Z,49.50
2018-10-03T09:55:39.243Z,49.66
2018-10-03T09:58:09.989Z,48.52
2018-10-03T10:00:44.770Z,48.75
2018-10-03T10:03:13.106Z,49.11
2018-10-03T10:05:42.362Z,49.63
2018-10-03T10:08:18.424Z,49.04
2018-10-03T10:10:47.781Z,48.27
2018-10-03T10:13:16.118Z,49.48
2018-10-03T10:15:45.355Z,48.96
2018-10-03T10:18:14.542Z,48.37
2018-10-03T10:20:43.800Z,48.74
2018-10-03T10:23:13.049Z,48.91
2018-10-03T10:25:42.273Z,49.02
2018-10-03T10:28:11.005Z,49.31
2018-10-03T10:30:40.373Z,49.45
2018-10-03T10:33:10.801Z,49.79
2018-10-03T10:35:40.095Z,51.28
2018-10-03T10:38:09.303Z,52.47
2018-10-03T10:40:38.892Z,52.19
2018-10-03T10:43:09.009Z,51.82
2018-10-03T10:45:39.669Z,53.99
2018-10-03T10:48:08.940Z,52.12
2018-10-03T10:50:39.397Z,50.33
2018-10-03T10:53:10.159Z,51.42
2018-10-03T10:55:39.382Z,51.29
2018-10-03T10:58:09.313Z,49.74
2018-10-03T11:00:39.936Z,49.26
2018-10-03T11:03:09.196Z,48.46
2018-10-03T11:05:38.490Z,47.95
2018-10-03T11:08:08.393Z,48.78
2018-10-03T11:10:38.749Z,48.00
2018-10-03T11:13:08.769Z,48.40
2018-10-03T11:15:39.651Z,49.12
2018-10-03T11:18:08.837Z,50.02
2018-10-03T11:20:38.710Z,52.43
2018-10-03T11:23:07.889Z,55.37
2018-10-03T11:25:36.933Z,56.23
2018-10-03T11:28:07.257Z,60.08
2018-10-03T11:30:36.237Z,65.46
2018-10-03T11:33:05.372Z,67.43
2018-10-03T11:35:33.861Z,69.20
2018-10-03T11:38:02.274Z,69.73
2018-10-03T11:40:30.592Z,69.03
2018-10-03T11:42:58.925Z,69.56
2018-10-03T11:45:27.247Z,70.13
2018-10-03T11:47:55.598Z,71.51
2018-10-03T11:50:25.364Z,71.74
2018-10-03T11:52:53.721Z,71.15
2018-10-03T11:55:22.047Z,72.59
2018-10-03T11:57:50.397Z,70.64
2018-10-03T12:00:18.717Z,72.24
2018-10-03T12:02:47.145Z,74.80
2018-10-03T12:05:15.483Z,75.21
2018-10-03T12:07:43.823Z,76.34
2018-10-03T12:10:12.177Z,76.86
2018-10-03T12:12:40.514Z,76.36
2018-10-03T12:15:08.846Z,75.80
2018-10-03T12:17:37.761Z,75.17
2018-10-03T12:20:07.165Z,75.41
2018-10-03T12:22:36.107Z,74.25
2018-10-03T12:25:07.169Z,71.90
2018-10-03T12:27:37.253Z,69.51
2018-10-03T12:30:07.105Z,69.53
2018-10-03T12:32:37.173Z,64.80
2018-10-03T12:35:08.010Z,65.41
2018-10-03T12:37:38.401Z,64.65
2018-10-03T12:40:08.608Z,63.83
2018-10-03T12:42:38.977Z,64.96
2018-10-03T12:45:09.417Z,62.90
2018-10-03T12:47:40.059Z,59.68
2018-10-03T12:50:09.428Z,60.38
2018-10-03T12:52:40.214Z,59.86
2018-10-03T12:55:10.847Z,56.83
2018-10-03T12:57:39.169Z,59.06
2018-10-03T13:00:08.951Z,56.81
2018-10-03T13:02:39.302Z,56.05
2018-10-03T13:05:09.976Z,56.40
2018-10-03T13:07:39.348Z,55.55
2018-10-03T13:10:08.737Z,56.25
2018-10-03T13:12:38.561Z,53.70
2018-10-03T13:15:08.041Z,52.71
2018-10-03T13:17:37.757Z,52.63
2018-10-03T13:20:08.174Z,51.04
2018-10-03T13:22:38.090Z,53.07
2018-10-03T13:25:08.093Z,50.84
2018-10-03T13:27:38.636Z,51.15
2018-10-03T13:30:08.356Z,52.10
2018-10-03T13:32:37.412Z,50.60
2018-10-03T13:35:06.821Z,49.60
2018-10-03T13:37:37.037Z,48.76
2018-10-03T13:40:07.526Z,49.01
2018-10-03T13:42:37.248Z,50.22
2018-10-03T13:45:07.366Z,50.40
2018-10-03T13:47:35.703Z,49.61
2018-10-03T13:50:04.969Z,48.73
2018-10-03T13:52:33.733Z,47.51
2018-10-03T13:55:03.218Z,47.12
2018-10-03T13:57:32.240Z,47.25
2018-10-03T14:00:00.571Z,46.60
2018-10-03T14:02:28.904Z,47.34
2018-10-03T14:04:57.248Z,48.25
2018-10-03T14:07:25.595Z,48.12
2018-10-03T14:09:53.936Z,48.17
2018-10-03T14:12:22.266Z,48.06
2018-10-03T14:14:50.618Z,48.15
2018-10-03T14:17:18.974Z,48.65
2018-10-03T14:19:47.313Z,47.30
2018-10-03T14:22:15.645Z,46.38
2018-10-03T14:24:43.967Z,44.55
2018-10-03T14:27:12.312Z,45.21
2018-10-03T14:29:41.530Z,44.42
2018-10-03T14:32:10.120Z,43.29
2018-10-03T14:34:39.149Z,42.85
2018-10-03T14:37:08.445Z,44.77
2018-10-03T14:39:37.214Z,45.03
2018-10-03T14:42:07.313Z,45.17
2018-10-03T14:44:36.155Z,45.35
2018-10-03T14:47:05.065Z,45.63
2018-10-03T14:49:34.109Z,45.39
2018-10-03T14:52:03.718Z,45.06
2018-10-03T14:54:32.654Z,45.64
2018-10-03T14:57:01.005Z,46.03
2018-10-03T14:59:29.362Z,45.71
2018-10-03T15:01:57.736Z,45.58
2018-10-03T15:04:26.109Z,46.63
2018-10-03T15:06:54.458Z,46.14
2018-10-03T15:09:22.841Z,46.63
2018-10-03T15:11:51.166Z,46.06
2018-10-03T15:14:19.498Z,45.94
2018-10-03T15:16:47.838Z,46.63
2018-10-03T15:19:16.186Z,46.42
2018-10-03T15:21:44.513Z,46.22
2018-10-03T15:24:12.875Z,46.94
2018-10-03T15:26:41.202Z,47.13
2018-10-03T15:29:09.550Z,46.44
2018-10-03T15:31:38.745Z,46.60
2018-10-03T15:34:08.186Z,46.47
2018-10-03T15:36:38.145Z,45.44
2018-10-03T15:39:08.533Z,45.80
2018-10-03T15:41:36.877Z,45.99
2018-10-03T15:44:05.288Z,46.93
2018-10-03T15:46:34.665Z,46.42
2018-10-03T15:49:03.370Z,46.04
2018-10-03T15:51:32.300Z,46.03
2018-10-03T15:54:00.637Z,47.37
2018-10-03T15:56:28.973Z,46.86
2018-10-03T15:58:57.348Z,47.20
2018-10-03T16:01:25.681Z,48.53
2018-10-03T16:03:54.021Z,47.47
2018-10-03T16:06:22.416Z,48.19
2018-10-03T16:08:50.740Z,48.01
2018-10-03T16:11:19.233Z,48.52
2018-10-03T16:13:48.454Z,48.52
2018-10-03T16:16:16.793Z,48.54
2018-10-03T16:18:46.018Z,47.90
2018-10-03T16:21:15.264Z,49.03
2018-10-03T16:23:44.470Z,49.67
2018-10-03T16:26:12.816Z,50.77
2018-10-03T16:28:41.165Z,49.25
2018-10-03T16:31:09.509Z,49.31
2018-10-03T16:33:39.278Z,50.47
2018-10-03T16:36:10.046Z,51.30
2018-10-03T16:38:39.485Z,51.69
2018-10-03T16:41:10.133Z,51.99
2018-10-03T16:43:39.505Z,52.10
2018-10-03T16:46:09.137Z,52.57
2018-10-03T16:48:40.002Z,52.00
2018-10-03T16:51:09.196Z,52.13
2018-10-03T16:53:38.982Z,51.69
2018-10-03T16:56:09.354Z,53.95
2018-10-03T16:58:40.010Z,53.97
2018-10-03T17:01:10.053Z,53.58
2018-10-03T17:03:40.047Z,52.38
2018-10-03T17:06:08.933Z,52.36
2018-10-03T17:08:39.005Z,54.07
2018-10-03T17:11:08.293Z,53.33
2018-10-03T17:13:48.138Z,53.58
2018-10-03T17:16:16.518Z,53.24
2018-10-03T17:18:44.853Z,54.06
2018-10-03T17:21:13.222Z,55.59
2018-10-03T17:23:42.601Z,55.13
2018-10-03T17:26:10.929Z,56.60
2018-10-03T17:28:40.145Z,56.63
2018-10-03T17:31:09.850Z,57.16
2018-10-03T17:33:39.601Z,57.47
2018-10-03T17:36:08.953Z,57.89
2018-10-03T17:38:39.581Z,59.06
2018-10-03T17:41:08.903Z,58.98
2018-10-03T17:43:39.037Z,59.71
2018-10-03T17:46:08.962Z,59.11
2018-10-03T17:48:39.693Z,60.68
2018-10-03T17:51:09.029Z,60.44
2018-10-03T17:53:38.357Z,59.98
2018-10-03T17:56:08.762Z,60.35
2018-10-03T17:58:38.846Z,59.94
2018-10-03T18:01:09.035Z,61.11
2018-10-03T18:03:38.977Z,60.55
2018-10-03T18:06:08.726Z,60.21
2018-10-03T18:08:38.816Z,59.71
2018-10-03T18:11:09.040Z,59.98
2018-10-03T18:13:39.759Z,60.14
2018-10-03T18:16:08.970Z,59.76
2018-10-03T18:18:38.070Z,59.93
2018-10-03T18:21:08.545Z,59.41
2018-10-03T18:23:38.325Z,59.63
2018-10-03T18:26:07.314Z,58.98
2018-10-03T18:28:37.306Z,59.75
2018-10-03T18:31:07.208Z,59.30
2018-10-03T18:33:35.837Z,59.02
2018-10-03T18:36:05.223Z,59.18
2018-10-03T18:38:34.263Z,59.29
2018-10-03T18:41:03.921Z,59.38
2018-10-03T18:43:33.257Z,58.66
2018-10-03T18:46:01.647Z,59.19
2018-10-03T18:48:30.999Z,59.06
2018-10-03T18:50:59.338Z,59.47
2018-10-03T18:53:27.686Z,59.33
2018-10-03T18:55:56.014Z,59.29
2018-10-03T18:58:24.373Z,59.67
2018-10-03T19:00:52.704Z,60.15
2018-10-03T19:03:21.077Z,60.98
2018-10-03T19:05:49.434Z,60.41
2018-10-03T19:08:17.760Z,60.12
2018-10-03T19:10:46.104Z,61.01
2018-10-03T19:13:14.506Z,61.19
2018-10-03T19:15:43.759Z,61.68
2018-10-03T19:18:13.134Z,61.32
2018-10-03T19:20:41.473Z,61.50
2018-10-03T19:23:09.821Z,60.94
2018-10-03T19:25:38.833Z,62.21
2018-10-03T19:28:07.876Z,61.36
2018-10-03T19:30:37.392Z,62.32
2018-10-03T19:33:07.387Z,62.18
2018-10-03T19:35:36.931Z,63.25
2018-10-03T19:38:07.245Z,62.74
2018-10-03T19:40:37.164Z,62.77
2018-10-03T19:43:07.762Z,63.02
2018-10-03T19:45:38.160Z,62.94
2018-10-03T19:48:08.791Z,62.88
2018-10-03T19:50:39.034Z,62.12
2018-10-03T19:53:09.384Z,62.66
2018-10-03T19:55:38.752Z,62.91
2018-10-03T19:58:08.950Z,63.14
2018-10-03T20:00:38.860Z,63.82
2018-10-03T20:03:08.821Z,63.11
2018-10-03T20:05:39.149Z,64.04
2018-10-03T20:08:08.913Z,63.63
2018-10-03T20:10:39.280Z,64.94
2018-10-03T20:13:08.909Z,65.07
2018-10-03T20:15:39.585Z,65.41
2018-10-03T20:18:08.896Z,65.75
2018-10-03T20:20:39.316Z,65.42
2018-10-03T20:23:08.689Z,65.82
2018-10-03T20:25:38.045Z,66.22
2018-10-03T20:28:07.117Z,65.66
2018-10-03T20:30:37.191Z,65.22
2018-10-03T20:33:06.972Z,65.95
2018-10-03T20:35:36.360Z,65.54
2018-10-03T20:38:06.974Z,65.59
2018-10-03T20:40:35.313Z,65.81
2018-10-03T20:43:04.377Z,66.51
2018-10-03T20:45:33.421Z,66.23
2018-10-03T20:48:02.802Z,66.30
2018-10-03T20:50:31.186Z,66.59
2018-10-03T20:52:59.525Z,66.35
2018-10-03T20:55:28.818Z,66.20
2018-10-03T20:57:57.174Z,66.17
2018-10-03T21:00:25.602Z,66.24
2018-10-03T21:02:53.885Z,66.47
2018-10-03T21:05:22.270Z,67.00
2018-10-03T21:07:50.613Z,66.48
2018-10-03T21:10:18.960Z,66.84
2018-10-03T21:12:47.293Z,66.41
2018-10-03T21:15:15.657Z,67.15
2018-10-03T21:17:43.998Z,66.41
2018-10-03T21:20:12.337Z,67.58
2018-10-03T21:22:40.676Z,68.00
2018-10-03T21:25:09.005Z,67.21
2018-10-03T21:27:38.369Z,67.54
2018-10-03T21:30:07.789Z,68.00
2018-10-03T21:32:36.896Z,67.75
2018-10-03T21:35:05.211Z,68.18
2018-10-03T21:37:33.583Z,68.77
2018-10-03T21:40:02.965Z,69.13
2018-10-03T21:42:31.319Z,68.92
2018-10-03T21:44:59.742Z,68.92
2018-10-03T21:47:28.113Z,68.15
2018-10-03T21:49:56.556Z,68.64
2018-10-03T21:52:24.928Z,69.10
2018-10-03T21:54:53.257Z,69.58
2018-10-03T21:57:21.645Z,69.43
2018-10-03T21:59:50.766Z,69.59
2018-10-03T22:02:19.102Z,69.77
2018-10-03T22:04:48.350Z,69.78
2018-10-03T22:07:17.687Z,69.76
2018-10-03T22:09:46.026Z,70.10
2018-10-03T22:12:15.381Z,70.43
2018-10-03T22:14:43.744Z,70.56
2018-10-03T22:17:17.357Z,71.18
2018-10-03T22:19:45.690Z,71.31
2018-10-03T22:22:15.261Z,71.61
2018-10-03T22:24:43.637Z,71.57
2018-10-03T22:27:12.995Z,71.67
2018-10-03T22:29:41.348Z,71.38
2018-10-03T22:32:10.099Z,71.75
2018-10-03T22:34:39.805Z,71.76
2018-10-03T22:37:09.437Z,71.60
2018-10-03T22:39:38.457Z,72.18
2018-10-03T22:42:08.665Z,71.79
2018-10-03T22:44:38.090Z,71.53
2018-10-03T22:47:07.221Z,71.85
2018-10-03T22:49:36.252Z,71.53
2018-10-03T22:52:07.348Z,71.85
2018-10-03T22:54:37.300Z,71.90
2018-10-03T22:57:08.101Z,72.13
2018-10-03T22:59:38.441Z,71.94
2018-10-03T23:02:08.093Z,71.88
2018-10-03T23:04:38.697Z,72.32
2018-10-03T23:07:09.042Z,72.46
2018-10-03T23:09:38.717Z,72.93
2018-10-03T23:12:09.542Z,73.69
2018-10-03T23:14:39.698Z,73.85
2018-10-03T23:17:08.933Z,73.73
2018-10-03T23:19:38.441Z,73.92
2018-10-03T23:22:08.020Z,73.84
2018-10-03T23:24:38.330Z,74.13
2018-10-03T23:27:08.644Z,74.08
2018-10-03T23:29:38.072Z,74.11
2018-10-03T23:32:07.478Z,74.34
2018-10-03T23:34:35.852Z,74.65
2018-10-03T23:37:05.231Z,74.55
2018-10-03T23:39:35.137Z,74.74
2018-10-03T23:42:04.443Z,75.40
2018-10-03T23:44:35.172Z,75.28
2018-10-03T23:47:06.405Z,75.20
2018-10-03T23:49:36.401Z,75.45
2018-10-03T23:52:06.833Z,75.47
2018-10-03T23:54:35.286Z,75.66
2018-10-03T23:57:03.670Z,75.93
2018-10-03T23:59:33.876Z,76.21
